Coldwater, MI

12:36 AM EDT on May 30, 2015 (GMT -0400)
Branch County Memorial | | Change Station
CLOSE
Current Station
Airport
Location: Coldwater,
Elevation: 958 ft
Nearby Weather Stations

Elev 958 ft 41.93 °N, 85.05 °W | Updated 21 minutes ago

Clear
Clear
74 °F
Feels Like 74 °F
N
9
Wind Variable Wind from SW

Today
High -- | Low -- °F
--% Chance of Precip.
Yesterday
High -- | Low -- °F
Precip. -- in
6:08 AM 9:07 PM
Waxing Gibbous, 88% visible
Pressure 29.98 in
Visibility 10.0 miles
Clouds Clear
Dew Point 62 °F
Humidity 64%
Rainfall 0.00 in
Snow Depth Not available.
UV 0 out of 12
Pollen 8.00 out of 12
Air Quality Not available.
Flu Activity Sporadic
METAR KOEB 300415Z AUTO 22008KT 10SM CLR 24/17 A2998 RMK AO2 T02360165

More Conditions Fewer Conditions

Pressure 29.98 in
Visibility 10.0 miles
Clouds Clear
Dew Point 62 °F
Humidity 64%
Rainfall 0.00 in
Snow Depth Not available.
UV 0 out of 12
Pollen 8.00 out of 12
Air Quality Not available.
Flu Activity Sporadic
METAR KOEB 300415Z AUTO 22008KT 10SM CLR 24/17 A2998 RMK AO2 T02360165

More Conditions Fewer Conditions

10-Day Weather Forecast

Almanac

Astronomy

May. 30, 2015 Rise Set
Actual Time
Civil Twilight
Nautical Twilight
Astronomical Twilight
Moon
Length of Visible Light
Length of Day
Tomorrow will be .
, % of the Moon is Illuminated

Today's Extremes

State Highs State Lows

Community

WunderPhotos

Upload Photos

1,825,450 photos uploaded!

WunderBlogs® & News

Nearby

Air Quality

  Air Quality AQ Index Pollutant
Not available.

Snow Depth

Station Depth Elevation

Earthquake Activity

City Distance Mag. Time & Date
Minimum magnitude displayed is 2.5.

Coastal Water Temperatures

Place Temperature

Stations

Nearby Weather Stations

Station Location Temp. Windchill Dew Point Humidity Wind Precip. Elev Updated Type